| Record Date MM/DD/YYYY | Record Julian Date NNN day of the year | Air Temperature Max (Degrees Fahrenheit F) | Time Max Air Temperature HH:MM:SS This is the time of max air temperature standard time. | Air Temperature Min (Degrees Fahrenheit F) | Time Min Air Temperature HH:MM:SS This is the time of min air temperature standard time. | Air Temperature Observed (Degrees Fahrenheit F) This is an instantaneous reading for air temperature at 7:00:00 standard time. | Relative Humidity Max (Percent) | Time Max Relative Humidity HH:MM:SS This is the time of max relative humidity standard time. | Relative Humidity Min (Percent) | Time Min Relative Humidity HH:MM:SS This is the time of min relative humidity standard time. | Relative Humidity Observed (Percent) This is an instantaneous reading at 7:00:00 standard time. | Precipitation (Inches n.nn) total rain fall that occurred for the day. | Pan Evaporation (Inches n.nn) total evaporation that occured for the day. | Wind Run (Miles) Wind travel for the day. | Wind Speed (Miles Per Hour) Resultant / Average speed for the day. | Wind Direction (Degrees) Resultant Direction for the day | Solar Radiation (Langley's) that occurred for the day. | Soil Temperature Max at 2 inch depth (Degrees Fahrenheit F) that occurred during the day. | Time Max Soil temperature at 2 inches HH:MM:SS This is the time of max 2 inch soil temperature standard time. | Soil Temperature Min at 2 inch depth (Degrees Fahrenheit F) that occurred during the day. | Time Min Soil temperature at 2 inches HH:MM:SS This is the time of min 2 inch soil temperature standard time. | Soil Temperature Observed at 2 inch depth (Degrees Fahrenheit F) This is an instantaneous reading 2 inch soil temperature at 7:00:00 standard time. | Soil Temperature Max at 4 inch depth (Degrees Fahrenheit F) that occurred during the day. | Time Max Soil temperature at 4 inches HH:MM:SS This is the time of max 4 inch soil temperature standard time. | Soil Temperature Min at 4 inch depth (Degrees Fahrenheit F) that occurred during the day. | Time Min Soil temperature at 4 inches HH:MM:SS This is the time of min 4 inch soil temperature standard time. | Soil Temperature Observed at 4 inch depth (Degrees Fahrenheit F) This is an instantaneous reading 4 inch soil temperature at 7:00:00 standard time. | DD50 Degree Days 50 Fahrenheit. | Adjusted DD50 Degree Days 50 Fahrenheit adjusted for latitude. | DD60 Degree Days 60 Fahrenheit. |
|---|---|---|---|---|---|---|---|---|---|---|---|---|---|---|---|---|---|---|---|---|---|---|---|---|---|---|---|---|---|---|
| 08/05/2026 | 217 | 97 | 14:10:05 | 68 | 3:41:01 | 79 | 98 | 4:16:02 | 39 | 13:50:05 | 81 | 0 | 59 | 2.5 | 345 | 602 | 91 | 15:24:01 | 78 | 6:20:00 | 78 | 89 | 16:42:04 | 80 | 6:59:04 | 80 | 32.5 | 26.99 | 22.5 | |
| 08/06/2026 | 218 | 94 | 11:54:02 | 70 | 4:53:04 | 79 | 100 | 5:55:01 | 61 | 11:54:03 | 88 | 0.79 | 59 | 2.4 | 189 | 360 | 89 | 12:34:03 | 79 | 6:08:05 | 80 | 87 | 13:29:05 | 81 | 6:48:04 | 81 | 32 | 26.95 | 22 | |
| 08/07/2026 | 219 | 96 | 13:59:05 | 72 | 2:14:01 | 78 | 100 | 1:41:03 | 49 | 13:41:03 | 93 | 0 | 54 | 2.2 | 146 | 548 | 92 | 15:03:00 | 78 | 6:25:00 | 78 | 89 | 15:37:04 | 79 | 6:48:05 | 79 | 34 | 26.92 | 24 | |
| 08/08/2026 | 220 | 98 | 14:50:00 | 72 | 5:21:03 | 82 | 100 | 5:44:02 | 47 | 14:48:02 | 84 | 0 | 54 | 2.3 | 176 | 569 | 92 | 14:59:03 | 80 | 6:15:05 | 80 | 90 | 15:25:05 | 81 | 7:09:01 | 81 | 35 | 26.89 | 25 | |
| 08/09/2026 | 221 | 97 | 16:31:01 | 70 | 3:17:04 | 77 | 100 | 5:58:05 | 47 | 16:26:03 | 90 | 0 | 52 | 2.2 | 161 | 593 | 92 | 14:12:05 | 80 | 6:09:00 | 80 | 90 | 16:26:02 | 81 | 7:12:04 | 81 | 33.5 | 26.86 | 23.5 | |
| 08/10/2026 | 222 | 97 | 15:18:05 | 73 | 4:54:00 | 84 | 100 | 5:57:04 | 51 | 16:11:05 | 85 | 0 | 74 | 3.1 | 174 | 578 | 94 | 14:23:04 | 81 | 6:29:00 | 81 | 90 | 15:43:00 | 82 | 6:51:04 | 82 | 35 | 26.83 | 25 | |
| 08/11/2026 | 223 | 95 | 14:43:03 | 73 | 5:17:01 | 81 | 100 | 5:56:04 | 52 | 16:11:05 | 89 | 0 | 80 | 3.4 | 229 | 596 | 93 | 14:34:04 | 81 | 6:20:04 | 81 | 90 | 15:52:01 | 82 | 7:12:05 | 82 | 34 | 26.8 | 24 | |
| 08/12/2026 | 224 | 99 | 15:09:02 | 75 | 4:07:02 | 80 | 98 | 5:27:03 | 49 | 15:08:00 | 92 | 0 | 84 | 3.5 | 226 | 560 | 93 | 15:04:04 | 82 | 6:22:01 | 82 | 90 | 15:45:04 | 83 | 7:10:03 | 83 | 37 | 26.77 | 27 | |
| 08/13/2026 | 225 | 100 | 14:47:04 | 77 | 5:38:02 | 81 | 99 | 5:49:00 | 48 | 16:36:05 | 93 | 0 | 95 | 3.9 | 237 | 563 | 94 | 15:31:03 | 82 | 6:21:03 | 82 | 91 | 16:15:04 | 83 | 7:04:00 | 83 | 38.5 | 26.73 | 28.5 | |
| 08/14/2026 | 226 | 101 | 15:25:03 | 74 | 23:56:03 | 80 | 98 | 5:46:00 | 33 | 15:19:01 | 93 | 0 | 75 | 3.1 | 234 | 612 | 94 | 14:57:02 | 83 | 6:47:00 | 83 | 91 | 16:10:01 | 83 | 7:08:04 | 83 | 37.5 | 26.7 | 27.5 | |
| 08/15/2026 | 227 | 102 | 14:50:00 | 74 | 0:11:02 | 81 | 98 | 5:44:02 | 35 | 14:40:01 | 92 | 0 | 65 | 2.7 | 257 | 565 | 93 | 15:33:00 | 82 | 6:27:03 | 82 | 91 | 16:29:00 | 83 | 7:08:00 | 83 | 38 | 26.67 | 28 | |
| 08/16/2026 | 228 | 102 | 15:08:02 | 77 | 0:25:04 | 82 | 95 | 5:31:00 | 43 | 15:10:04 | 89 | 0 | 99 | 4.1 | 248 | 531 | 95 | 15:30:02 | 83 | 6:16:01 | 83 | 92 | 15:45:02 | 84 | 7:04:05 | 84 | 39.5 | 26.64 | 29.5 | |
| 08/17/2026 | 229 | 102 | 14:12:04 | 77 | 5:37:05 | 81 | 93 | 5:46:00 | 42 | 13:38:01 | 86 | 0 | 117 | 4.9 | 249 | 574 | 95 | 15:14:04 | 83 | 6:34:02 | 83 | 92 | 16:16:03 | 84 | 7:16:01 | 84 | 39.5 | 26.61 | 29.5 | |
| 08/18/2026 | 230 | 103 | 13:59:04 | 77 | 5:18:01 | 80 | 89 | 5:23:02 | 42 | 14:00:01 | 83 | 0 | 122 | 5.1 | 239 | 596 | 96 | 14:45:00 | 83 | 6:41:04 | 83 | 93 | 16:04:04 | 84 | 7:04:03 | 84 | 40 | 26.57 | 30 | |
| 08/19/2026 | 231 | 101 | 14:55:05 | 76 | 5:16:03 | 81 | 98 | 5:27:01 | 41 | 15:21:02 | 88 | 0 | 88 | 3.7 | 221 | 512 | 94 | 15:38:02 | 84 | 6:22:01 | 84 | 91 | 15:53:00 | 84 | 7:11:02 | 84 | 38.5 | 26.54 | 28.5 | |
| 08/20/2026 | 232 | 101 | 14:30:03 | 76 | 5:14:03 | 80 | 99 | 5:45:02 | 46 | 14:31:01 | 94 | 0 | 105 | 4.4 | 227 | 498 | 94 | 15:14:04 | 83 | 6:48:00 | 83 | 91 | 15:45:02 | 84 | 7:25:00 | 84 | 38.5 | 26.51 | 28.5 | |
| 08/21/2026 | 233 | 102 | 13:41:01 | 70 | 15:23:01 | 81 | 100 | 16:09:05 | 43 | 13:37:00 | 86 | 0.31 | 110 | 4.6 | 233 | 429 | 94 | 14:14:04 | 82 | 23:59:03 | 83 | 91 | 15:28:00 | 84 | 23:58:05 | 84 | 36 | 26.47 | 26 | |
| 08/22/2026 | 234 | 100 | 15:34:03 | 71 | 5:35:05 | 76 | 100 | 5:44:01 | 38 | 16:50:00 | 96 | 0 | 61 | 2.5 | 311 | 591 | 93 | 14:52:01 | 80 | 6:17:04 | 80 | 91 | 15:56:03 | 81 | 7:15:02 | 81 | 35.5 | 26.44 | 25.5 | |
| 08/23/2026 | 235 | 99 | 15:01:00 | 74 | 7:06:01 | 75 | 95 | 23:57:02 | 46 | 16:49:01 | 95 | 0.02 | 67 | 2.8 | 32 | 488 | 93 | 15:26:04 | 82 | 7:05:00 | 82 | 90 | 16:18:03 | 83 | 7:52:03 | 83 | 36.5 | 26.41 | 26.5 | |
| 08/24/2026 | 236 | 85 | 8:40:01 | 71 | 23:56:01 | 82 | 100 | 23:14:02 | 75 | 8:42:00 | 82 | 0.15 | 68 | 2.8 | 240 | 143 | 85 | 0:00:00 | 80 | 23:56:00 | 82 | 85 | 0:00:01 | 81 | 23:57:05 | 83 | 28 | 26.38 | 18 | |
| 08/25/2026 | 237 | 93 | 16:02:02 | 70 | 1:37:00 | 76 | 100 | 0:00:00 | 57 | 16:53:05 | 98 | 0 | 53 | 2.2 | 299 | 414 | 88 | 15:49:03 | 79 | 5:59:04 | 79 | 87 | 16:35:01 | 80 | 6:37:05 | 80 | 31.5 | 26.34 | 21.5 | |
| 08/26/2026 | 238 | 99 | 14:38:00 | 72 | 5:33:05 | 80 | 100 | 5:55:03 | 39 | 14:23:01 | 84 | 0 | 78 | 3.3 | 256 | 522 | 91 | 15:26:04 | 79 | 6:20:01 | 80 | 89 | 16:04:00 | 81 | 6:53:00 | 81 | 35.5 | 26.31 | 25.5 | |
| 08/27/2026 | 239 | 89 | 14:15:00 | 71 | 5:43:00 | 72 | 100 | 3:27:04 | 65 | 16:41:02 | 100 | 2.96 | 72 | 3.0 | 324 | 429 | 88 | 15:01:04 | 79 | 6:59:03 | 79 | 87 | 16:39:02 | 80 | 7:12:05 | 80 | 30 | 26.28 | 20 | |
| 08/28/2026 | 240 | 94 | 13:54:03 | 72 | 23:58:00 | 78 | 100 | 2:47:03 | 49 | 13:31:02 | 92 | 0 | 69 | 2.9 | 358 | 486 | 90 | 14:16:03 | 79 | 6:36:01 | 80 | 88 | 15:32:02 | 81 | 7:02:00 | 81 | 33 | 26.24 | 23 | |
| 08/29/2026 | 241 | 94 | 14:12:02 | 70 | 1:34:02 | 77 | 97 | 1:38:05 | 39 | 12:53:00 | 81 | 0 | 62 | 2.6 | 27 | 588 | 90 | 14:29:03 | 78 | 6:33:03 | 78 | 88 | 15:57:02 | 80 | 7:12:00 | 80 | 32 | 26.21 | 22 | |
| 08/30/2026 | 242 | 94 | 14:58:00 | 71 | 4:51:01 | 78 | 99 | 5:41:01 | 54 | 16:00:00 | 91 | 0 | 59 | 2.5 | 123 | 553 | 91 | 15:13:00 | 79 | 6:32:02 | 79 | 88 | 16:13:01 | 80 | 7:08:05 | 80 | 32.5 | 26.18 | 22.5 | |
| 08/31/2026 | 243 | 94 | 14:31:03 | 72 | 4:23:04 | 79 | 100 | 4:56:04 | 51 | 15:48:03 | 92 | 0 | 74 | 3.1 | 91 | 560 | 92 | 14:59:05 | 80 | 6:09:05 | 80 | 89 | 15:53:00 | 81 | 6:51:02 | 81 | 33 | 26.14 | 23 | |
| 09/01/2026 | 244 | 93 | 15:18:04 | 73 | 5:25:02 | 77 | 100 | 5:28:01 | 58 | 15:09:04 | 97 | 0 | 63 | 2.6 | 124 | 463 | 90 | 15:56:00 | 81 | 6:08:01 | 81 | 87 | 16:58:03 | 82 | 6:40:00 | 82 | 33 | 26.11 | 23 | |
| 09/02/2026 | 245 | 97 | 14:17:03 | 72 | 4:57:00 | 81 | 100 | 4:08:03 | 54 | 16:04:03 | 90 | 0 | 47 | 1.9 | 151 | 505 | 90 | 15:13:02 | 80 | 6:30:00 | 80 | 88 | 16:15:04 | 81 | 7:24:00 | 81 | 34.5 | 26.08 | 24.5 | |
| 09/03/2026 | 246 | 96 | 12:38:00 | 74 | 5:25:03 | 82 | 100 | 5:46:01 | 55 | 12:38:00 | 87 | 0.61 | 45 | 1.9 | 33 | 396 | 85 | 13:36:00 | 81 | 6:28:05 | 81 | 85 | 13:38:01 | 82 | 7:11:00 | 82 | 35 | 26.04 | 25 | |
| Average | 97.13 | 72.8 | 79.33 | 98.53 | 48.27 | 89.7 | 0.16 | 73.67 | 514.13 | 91.7 | 80.7 | 80.9 | 89.33 | 81.83 | 81.9 | 34.97 | 26.52 | 24.97 | ||||||||||||
| Total | 4.84 | 1049 | 795.61 | 749 |